Portada
METAR-TAF:

METAR-TAF

Aeropuertos :

Bruselas, Bélgica

Aeropuerto de Bruselas. Zaventem

latitud: 50-54N, longitud: 004-32E, altitud: 55 m

Observación

El informe se hizo hace 36 minutos, a las 17:50 UTC
Viento 18 kt del oeste
Temperatura 23°C
Humedad 53%
Presión 1012 hPa
Visibilidad 10 km o más
Escasas nubes a una altura de 6000 ft, Cumulus congestus.

METAR: EBBR 221750Z 28018KT 9999 FEW060TCU 23/13 Q1012 TEMPO 27018G28KT

Hora: 20:26 (18:26 UTC)

Pronóstico

El informe se hizo hace 1 hora y 16 minutos, a las 17:10 UTC
Pronóstico válido del 22 a las 18 UTC al 23 a las 24 UTC
Viento 8 kt del oeste-suroeste
Visibilidad 10 km o más
Nubes dispersas a una altura de 3000 ft
Probabilidad 30% :
Temporalmente
del 23 a las 04 UTC al 23 a las 07 UTC
Cielo nuboso a una altura de 900 ft

TAF: EBBR 221710Z 2218/2324 25008KT 9999 SCT030 PROB30 TEMPO 2304/2307 BKN009

Observaciones y pronósticos meteorológicos de más de 4000 aeropuertos (mensajes METAR y TAF).

Los puntos amarillos y rojos representan las estaciones disponibles.

Ponga el ratón en el punto deseado para ver el nombre de la estación.

Haga clic para ver las observaciones y los pronósticos meteorológicos.

Para cambiar el mapa : haga clic en los botones verdes con una cruz de color negro para hacer un zoom, en el botón verde con un guión para alejar o en las flechas verdes para mapas adyacentes.


METAR-TAF: